sensor_id;sensor_type;location;lat;lon;timestamp;temperature;humidity
9107;DHT22;4589;48.690;8.952;2023-12-14T00:00:19;3.70;99.90
9107;DHT22;4589;48.690;8.952;2023-12-14T00:14:56;3.80;99.90
9107;DHT22;4589;48.690;8.952;2023-12-14T00:17:22;3.70;99.90
9107;DHT22;4589;48.690;8.952;2023-12-14T00:19:48;3.80;99.90
9107;DHT22;4589;48.690;8.952;2023-12-14T00:24:39;3.80;99.90
9107;DHT22;4589;48.690;8.952;2023-12-14T00:27:05;3.80;99.90
9107;DHT22;4589;48.690;8.952;2023-12-14T00:31:56;3.80;99.90
9107;DHT22;4589;48.690;8.952;2023-12-14T00:41:40;3.90;99.90
9107;DHT22;4589;48.690;8.952;2023-12-14T00:44:05;3.90;99.90
9107;DHT22;4589;48.690;8.952;2023-12-14T00:51:23;3.80;99.90
9107;DHT22;4589;48.690;8.952;2023-12-14T00:53:48;3.90;99.90
9107;DHT22;4589;48.690;8.952;2023-12-14T00:56:14;4.00;99.90
9107;DHT22;4589;48.690;8.952;2023-12-14T00:58:39;4.00;99.90
9107;DHT22;4589;48.690;8.952;2023-12-14T01:01:05;3.90;99.90
9107;DHT22;4589;48.690;8.952;2023-12-14T01:03:30;3.90;99.90
9107;DHT22;4589;48.690;8.952;2023-12-14T01:05:56;3.80;99.90
9107;DHT22;4589;48.690;8.952;2023-12-14T01:08:21;3.80;99.90
9107;DHT22;4589;48.690;8.952;2023-12-14T01:10:47;3.70;99.90
9107;DHT22;4589;48.690;8.952;2023-12-14T01:13:12;3.70;99.90
9107;DHT22;4589;48.690;8.952;2023-12-14T01:15:38;3.70;99.90
9107;DHT22;4589;48.690;8.952;2023-12-14T01:20:30;3.80;99.90
9107;DHT22;4589;48.690;8.952;2023-12-14T01:22:55;3.70;99.90
9107;DHT22;4589;48.690;8.952;2023-12-14T01:25:21;3.70;99.90
9107;DHT22;4589;48.690;8.952;2023-12-14T01:27:46;3.80;99.90
9107;DHT22;4589;48.690;8.952;2023-12-14T01:30:12;3.70;99.90
9107;DHT22;4589;48.690;8.952;2023-12-14T01:32:37;3.70;99.90
9107;DHT22;4589;48.690;8.952;2023-12-14T01:35:04;3.70;99.90
9107;DHT22;4589;48.690;8.952;2023-12-14T01:37:30;3.80;99.90
9107;DHT22;4589;48.690;8.952;2023-12-14T01:39:55;3.80;99.90
9107;DHT22;4589;48.690;8.952;2023-12-14T01:49:39;3.90;99.90
9107;DHT22;4589;48.690;8.952;2023-12-14T01:52:06;3.90;99.90
9107;DHT22;4589;48.690;8.952;2023-12-14T01:54:32;3.90;99.90
9107;DHT22;4589;48.690;8.952;2023-12-14T01:56:58;3.90;99.90
9107;DHT22;4589;48.690;8.952;2023-12-14T01:59:24;4.00;99.90
9107;DHT22;4589;48.690;8.952;2023-12-14T02:01:54;4.00;99.90
9107;DHT22;4589;48.690;8.952;2023-12-14T02:04:22;3.90;99.90
9107;DHT22;4589;48.690;8.952;2023-12-14T02:06:48;3.90;99.90
9107;DHT22;4589;48.690;8.952;2023-12-14T02:14:08;4.00;99.90
9107;DHT22;4589;48.690;8.952;2023-12-14T02:16:34;4.00;99.90
9107;DHT22;4589;48.690;8.952;2023-12-14T02:18:59;4.00;99.90
9107;DHT22;4589;48.690;8.952;2023-12-14T02:28:43;4.00;99.90
9107;DHT22;4589;48.690;8.952;2023-12-14T02:31:08;4.10;99.90
9107;DHT22;4589;48.690;8.952;2023-12-14T02:33:34;4.10;99.90
9107;DHT22;4589;48.690;8.952;2023-12-14T02:36:00;4.10;99.90
9107;DHT22;4589;48.690;8.952;2023-12-14T02:43:18;4.10;99.90
9107;DHT22;4589;48.690;8.952;2023-12-14T02:45:44;4.10;99.90
9107;DHT22;4589;48.690;8.952;2023-12-14T02:48:10;4.20;99.90
9107;DHT22;4589;48.690;8.952;2023-12-14T02:53:02;4.10;99.90
9107;DHT22;4589;48.690;8.952;2023-12-14T02:55:27;4.10;99.90
9107;DHT22;4589;48.690;8.952;2023-12-14T02:57:53;4.10;99.90
9107;DHT22;4589;48.690;8.952;2023-12-14T03:02:45;4.00;99.90
9107;DHT22;4589;48.690;8.952;2023-12-14T03:05:10;4.10;99.90
9107;DHT22;4589;48.690;8.952;2023-12-14T03:07:36;4.10;99.90
9107;DHT22;4589;48.690;8.952;2023-12-14T03:10:02;4.10;99.90
9107;DHT22;4589;48.690;8.952;2023-12-14T03:12:28;4.10;99.90
9107;DHT22;4589;48.690;8.952;2023-12-14T03:14:54;4.10;99.90
9107;DHT22;4589;48.690;8.952;2023-12-14T03:24:38;4.10;99.90
9107;DHT22;4589;48.690;8.952;2023-12-14T03:27:04;4.20;99.90
9107;DHT22;4589;48.690;8.952;2023-12-14T03:31:56;4.10;99.90
9107;DHT22;4589;48.690;8.952;2023-12-14T03:36:48;4.20;99.90
9107;DHT22;4589;48.690;8.952;2023-12-14T03:39:13;4.10;99.90
9107;DHT22;4589;48.690;8.952;2023-12-14T03:41:39;4.10;99.90
9107;DHT22;4589;48.690;8.952;2023-12-14T03:48:56;4.30;99.90
9107;DHT22;4589;48.690;8.952;2023-12-14T03:51:22;4.30;99.90
9107;DHT22;4589;48.690;8.952;2023-12-14T03:53:48;4.40;99.90
9107;DHT22;4589;48.690;8.952;2023-12-14T03:56:13;4.20;99.90
9107;DHT22;4589;48.690;8.952;2023-12-14T03:58:39;4.30;99.90
9107;DHT22;4589;48.690;8.952;2023-12-14T04:01:04;4.30;99.90
9107;DHT22;4589;48.690;8.952;2023-12-14T04:08:23;4.30;99.90
9107;DHT22;4589;48.690;8.952;2023-12-14T04:10:49;4.20;99.90
9107;DHT22;4589;48.690;8.952;2023-12-14T04:15:40;4.20;99.90
9107;DHT22;4589;48.690;8.952;2023-12-14T04:18:07;4.30;99.90
9107;DHT22;4589;48.690;8.952;2023-12-14T04:20:33;4.30;99.90
9107;DHT22;4589;48.690;8.952;2023-12-14T04:22:59;4.30;99.90
9107;DHT22;4589;48.690;8.952;2023-12-14T04:25:24;4.30;99.90
9107;DHT22;4589;48.690;8.952;2023-12-14T04:27:50;4.30;99.90
9107;DHT22;4589;48.690;8.952;2023-12-14T04:30:16;4.30;99.90
9107;DHT22;4589;48.690;8.952;2023-12-14T04:32:42;4.30;99.90
9107;DHT22;4589;48.690;8.952;2023-12-14T04:35:08;4.30;99.90
9107;DHT22;4589;48.690;8.952;2023-12-14T04:37:33;4.30;99.90
9107;DHT22;4589;48.690;8.952;2023-12-14T04:39:59;4.30;99.90
9107;DHT22;4589;48.690;8.952;2023-12-14T04:44:51;4.30;99.90
9107;DHT22;4589;48.690;8.952;2023-12-14T04:49:43;4.20;99.90
9107;DHT22;4589;48.690;8.952;2023-12-14T04:52:08;4.20;99.90
9107;DHT22;4589;48.690;8.952;2023-12-14T04:54:34;4.20;99.90
9107;DHT22;4589;48.690;8.952;2023-12-14T04:57:05;4.30;99.90
9107;DHT22;4589;48.690;8.952;2023-12-14T04:59:31;4.30;99.90
9107;DHT22;4589;48.690;8.952;2023-12-14T05:01:56;4.30;99.90
9107;DHT22;4589;48.690;8.952;2023-12-14T05:04:22;4.40;99.90
9107;DHT22;4589;48.690;8.952;2023-12-14T05:06:47;4.40;99.90
9107;DHT22;4589;48.690;8.952;2023-12-14T05:09:13;4.40;99.90
9107;DHT22;4589;48.690;8.952;2023-12-14T05:11:42;4.30;99.90
9107;DHT22;4589;48.690;8.952;2023-12-14T05:14:08;4.30;99.90
9107;DHT22;4589;48.690;8.952;2023-12-14T05:16:33;4.30;99.90
9107;DHT22;4589;48.690;8.952;2023-12-14T05:18:59;4.30;99.90
9107;DHT22;4589;48.690;8.952;2023-12-14T05:21:25;4.40;99.90
9107;DHT22;4589;48.690;8.952;2023-12-14T05:23:50;4.40;99.90
9107;DHT22;4589;48.690;8.952;2023-12-14T05:26:16;4.40;99.90
9107;DHT22;4589;48.690;8.952;2023-12-14T05:28:42;4.40;99.90
9107;DHT22;4589;48.690;8.952;2023-12-14T05:33:37;4.40;99.90
9107;DHT22;4589;48.690;8.952;2023-12-14T05:36:03;4.40;99.90
9107;DHT22;4589;48.690;8.952;2023-12-14T05:40:59;4.40;99.90
9107;DHT22;4589;48.690;8.952;2023-12-14T05:43:25;4.40;99.90
9107;DHT22;4589;48.690;8.952;2023-12-14T05:48:16;4.50;99.90
9107;DHT22;4589;48.690;8.952;2023-12-14T05:50:42;4.50;99.90
9107;DHT22;4589;48.690;8.952;2023-12-14T05:53:07;4.60;99.90
9107;DHT22;4589;48.690;8.952;2023-12-14T05:55:33;4.50;99.90
9107;DHT22;4589;48.690;8.952;2023-12-14T06:00:24;4.50;99.90
9107;DHT22;4589;48.690;8.952;2023-12-14T06:02:50;4.50;99.90
9107;DHT22;4589;48.690;8.952;2023-12-14T06:05:15;4.60;99.90
9107;DHT22;4589;48.690;8.952;2023-12-14T06:14:59;4.60;99.90
9107;DHT22;4589;48.690;8.952;2023-12-14T06:19:50;4.50;99.90
9107;DHT22;4589;48.690;8.952;2023-12-14T06:24:42;4.50;99.90
9107;DHT22;4589;48.690;8.952;2023-12-14T06:27:07;4.50;99.90
9107;DHT22;4589;48.690;8.952;2023-12-14T06:29:33;4.50;99.90
9107;DHT22;4589;48.690;8.952;2023-12-14T06:31:58;4.50;99.90
9107;DHT22;4589;48.690;8.952;2023-12-14T06:34:24;4.50;99.90
9107;DHT22;4589;48.690;8.952;2023-12-14T06:46:34;4.50;99.90
9107;DHT22;4589;48.690;8.952;2023-12-14T06:51:27;4.50;99.90
9107;DHT22;4589;48.690;8.952;2023-12-14T06:53:52;4.50;99.90
9107;DHT22;4589;48.690;8.952;2023-12-14T06:56:18;4.60;99.90
9107;DHT22;4589;48.690;8.952;2023-12-14T06:58:44;4.60;99.90
9107;DHT22;4589;48.690;8.952;2023-12-14T07:01:14;4.60;99.90
9107;DHT22;4589;48.690;8.952;2023-12-14T07:03:43;4.60;99.90
9107;DHT22;4589;48.690;8.952;2023-12-14T07:06:17;4.60;99.90
9107;DHT22;4589;48.690;8.952;2023-12-14T07:08:43;4.50;99.90
9107;DHT22;4589;48.690;8.952;2023-12-14T07:11:09;4.60;99.90
9107;DHT22;4589;48.690;8.952;2023-12-14T07:13:35;4.60;99.90
9107;DHT22;4589;48.690;8.952;2023-12-14T07:16:06;4.60;99.90
9107;DHT22;4589;48.690;8.952;2023-12-14T07:18:40;4.60;99.90
9107;DHT22;4589;48.690;8.952;2023-12-14T07:21:06;4.60;99.90
9107;DHT22;4589;48.690;8.952;2023-12-14T07:23:32;4.60;99.90
9107;DHT22;4589;48.690;8.952;2023-12-14T07:25:57;4.70;99.90
9107;DHT22;4589;48.690;8.952;2023-12-14T07:28:23;4.70;99.90
9107;DHT22;4589;48.690;8.952;2023-12-14T07:33:16;4.70;99.90
9107;DHT22;4589;48.690;8.952;2023-12-14T07:35:41;4.70;99.90
9107;DHT22;4589;48.690;8.952;2023-12-14T07:38:07;4.70;99.90
9107;DHT22;4589;48.690;8.952;2023-12-14T07:42:59;4.80;99.90
9107;DHT22;4589;48.690;8.952;2023-12-14T07:45:25;4.80;99.90
9107;DHT22;4589;48.690;8.952;2023-12-14T07:47:50;4.70;99.90
9107;DHT22;4589;48.690;8.952;2023-12-14T07:55:08;4.80;99.90
9107;DHT22;4589;48.690;8.952;2023-12-14T07:57:33;4.80;99.90
9107;DHT22;4589;48.690;8.952;2023-12-14T07:59:59;4.80;99.90
9107;DHT22;4589;48.690;8.952;2023-12-14T08:04:51;4.80;99.90
9107;DHT22;4589;48.690;8.952;2023-12-14T08:07:17;4.90;99.90
9107;DHT22;4589;48.690;8.952;2023-12-14T08:17:04;5.00;99.90
9107;DHT22;4589;48.690;8.952;2023-12-14T08:19:30;5.00;99.90
9107;DHT22;4589;48.690;8.952;2023-12-14T08:24:21;5.10;99.90
9107;DHT22;4589;48.690;8.952;2023-12-14T08:29:13;5.10;99.90
9107;DHT22;4589;48.690;8.952;2023-12-14T08:31:39;5.20;99.90
9107;DHT22;4589;48.690;8.952;2023-12-14T08:34:04;5.30;99.90
9107;DHT22;4589;48.690;8.952;2023-12-14T08:38:57;5.50;99.90
9107;DHT22;4589;48.690;8.952;2023-12-14T08:41:22;5.60;99.90
9107;DHT22;4589;48.690;8.952;2023-12-14T08:46:14;5.80;99.90
9107;DHT22;4589;48.690;8.952;2023-12-14T08:48:39;6.10;99.90
9107;DHT22;4589;48.690;8.952;2023-12-14T08:51:05;6.30;99.90
9107;DHT22;4589;48.690;8.952;2023-12-14T08:53:31;6.40;99.90
9107;DHT22;4589;48.690;8.952;2023-12-14T09:00:48;6.40;99.90
9107;DHT22;4589;48.690;8.952;2023-12-14T09:03:18;6.40;99.90
9107;DHT22;4589;48.690;8.952;2023-12-14T09:05:44;6.40;99.90
9107;DHT22;4589;48.690;8.952;2023-12-14T09:08:10;6.40;99.90
9107;DHT22;4589;48.690;8.952;2023-12-14T09:10:36;6.40;99.90
9107;DHT22;4589;48.690;8.952;2023-12-14T09:13:02;6.40;99.90
9107;DHT22;4589;48.690;8.952;2023-12-14T09:15:32;6.50;99.90
9107;DHT22;4589;48.690;8.952;2023-12-14T09:17:58;6.60;99.90
9107;DHT22;4589;48.690;8.952;2023-12-14T09:25:16;6.60;99.90
9107;DHT22;4589;48.690;8.952;2023-12-14T09:27:42;6.70;99.90
9107;DHT22;4589;48.690;8.952;2023-12-14T09:30:08;6.70;99.90
9107;DHT22;4589;48.690;8.952;2023-12-14T09:32:34;6.70;99.90
9107;DHT22;4589;48.690;8.952;2023-12-14T09:35:00;6.80;99.90
9107;DHT22;4589;48.690;8.952;2023-12-14T09:37:26;7.00;99.90
9107;DHT22;4589;48.690;8.952;2023-12-14T09:39:51;7.10;99.90
9107;DHT22;4589;48.690;8.952;2023-12-14T09:42:19;7.20;99.90
9107;DHT22;4589;48.690;8.952;2023-12-14T09:44:47;7.30;99.90
9107;DHT22;4589;48.690;8.952;2023-12-14T09:47:13;7.30;99.90
9107;DHT22;4589;48.690;8.952;2023-12-14T09:49:40;7.40;99.90
9107;DHT22;4589;48.690;8.952;2023-12-14T09:52:08;7.70;99.90
9107;DHT22;4589;48.690;8.952;2023-12-14T09:54:34;8.00;99.90
9107;DHT22;4589;48.690;8.952;2023-12-14T09:56:59;8.10;99.90
9107;DHT22;4589;48.690;8.952;2023-12-14T09:59:25;8.20;99.90
9107;DHT22;4589;48.690;8.952;2023-12-14T10:01:50;8.10;99.90
9107;DHT22;4589;48.690;8.952;2023-12-14T10:04:17;8.20;99.90
9107;DHT22;4589;48.690;8.952;2023-12-14T10:06:45;8.10;99.90
9107;DHT22;4589;48.690;8.952;2023-12-14T10:09:11;8.10;99.90
9107;DHT22;4589;48.690;8.952;2023-12-14T10:11:44;8.00;99.90
9107;DHT22;4589;48.690;8.952;2023-12-14T10:14:23;8.00;99.90
9107;DHT22;4589;48.690;8.952;2023-12-14T10:19:19;8.00;99.90
9107;DHT22;4589;48.690;8.952;2023-12-14T10:21:48;8.10;99.90
9107;DHT22;4589;48.690;8.952;2023-12-14T10:24:14;8.20;99.90
9107;DHT22;4589;48.690;8.952;2023-12-14T10:26:40;8.20;99.90
9107;DHT22;4589;48.690;8.952;2023-12-14T10:29:07;8.10;99.90
9107;DHT22;4589;48.690;8.952;2023-12-14T10:31:33;8.10;99.90
9107;DHT22;4589;48.690;8.952;2023-12-14T10:34:03;8.30;99.90
9107;DHT22;4589;48.690;8.952;2023-12-14T10:38:57;8.30;99.90
9107;DHT22;4589;48.690;8.952;2023-12-14T10:41:24;8.20;99.90
9107;DHT22;4589;48.690;8.952;2023-12-14T10:43:52;8.30;99.90
9107;DHT22;4589;48.690;8.952;2023-12-14T10:46:19;8.30;99.90
9107;DHT22;4589;48.690;8.952;2023-12-14T10:48:47;8.30;99.90
9107;DHT22;4589;48.690;8.952;2023-12-14T10:51:15;8.20;99.90
9107;DHT22;4589;48.690;8.952;2023-12-14T10:53:41;8.30;99.90
9107;DHT22;4589;48.690;8.952;2023-12-14T10:56:10;8.20;99.90
9107;DHT22;4589;48.690;8.952;2023-12-14T10:58:55;8.20;99.90
9107;DHT22;4589;48.690;8.952;2023-12-14T11:01:22;8.40;99.90
9107;DHT22;4589;48.690;8.952;2023-12-14T11:03:50;8.40;99.90
9107;DHT22;4589;48.690;8.952;2023-12-14T11:06:36;8.80;99.90
9107;DHT22;4589;48.690;8.952;2023-12-14T11:09:07;9.40;99.90
9107;DHT22;4589;48.690;8.952;2023-12-14T11:14:22;10.50;99.90
9107;DHT22;4589;48.690;8.952;2023-12-14T11:16:48;11.50;99.90
9107;DHT22;4589;48.690;8.952;2023-12-14T11:24:23;10.50;99.90
9107;DHT22;4589;48.690;8.952;2023-12-14T11:26:49;9.90;99.90
9107;DHT22;4589;48.690;8.952;2023-12-14T11:31:41;9.10;99.90
9107;DHT22;4589;48.690;8.952;2023-12-14T11:34:06;8.80;99.90
9107;DHT22;4589;48.690;8.952;2023-12-14T11:36:33;8.70;99.90
9107;DHT22;4589;48.690;8.952;2023-12-14T11:38:58;8.40;99.90
9107;DHT22;4589;48.690;8.952;2023-12-14T11:41:24;8.10;99.90
9107;DHT22;4589;48.690;8.952;2023-12-14T11:43:51;7.70;99.90
9107;DHT22;4589;48.690;8.952;2023-12-14T11:46:17;7.20;99.90
9107;DHT22;4589;48.690;8.952;2023-12-14T11:48:46;7.00;99.90
9107;DHT22;4589;48.690;8.952;2023-12-14T11:51:14;7.00;99.90
9107;DHT22;4589;48.690;8.952;2023-12-14T11:56:08;6.80;99.90
9107;DHT22;4589;48.690;8.952;2023-12-14T11:58:34;6.90;99.90
9107;DHT22;4589;48.690;8.952;2023-12-14T12:01:17;7.00;99.90
9107;DHT22;4589;48.690;8.952;2023-12-14T12:03:44;7.30;99.90
9107;DHT22;4589;48.690;8.952;2023-12-14T12:06:27;7.40;99.90
9107;DHT22;4589;48.690;8.952;2023-12-14T12:08:55;7.50;99.90
9107;DHT22;4589;48.690;8.952;2023-12-14T12:11:23;7.70;99.90
9107;DHT22;4589;48.690;8.952;2023-12-14T12:13:55;7.60;99.90
9107;DHT22;4589;48.690;8.952;2023-12-14T12:16:22;7.60;99.90
9107;DHT22;4589;48.690;8.952;2023-12-14T12:18:47;7.60;99.90
9107;DHT22;4589;48.690;8.952;2023-12-14T12:21:13;7.60;99.90
9107;DHT22;4589;48.690;8.952;2023-12-14T12:23:39;7.70;99.90
9107;DHT22;4589;48.690;8.952;2023-12-14T12:26:07;7.60;99.90
9107;DHT22;4589;48.690;8.952;2023-12-14T12:28:32;7.50;99.90
9107;DHT22;4589;48.690;8.952;2023-12-14T12:30:58;7.70;99.90
9107;DHT22;4589;48.690;8.952;2023-12-14T12:33:25;7.80;99.90
9107;DHT22;4589;48.690;8.952;2023-12-14T12:35:51;7.80;99.90
9107;DHT22;4589;48.690;8.952;2023-12-14T12:38:17;7.90;99.90
9107;DHT22;4589;48.690;8.952;2023-12-14T12:40:44;7.90;99.90
9107;DHT22;4589;48.690;8.952;2023-12-14T12:43:10;7.90;99.90
9107;DHT22;4589;48.690;8.952;2023-12-14T12:45:36;7.90;99.90
9107;DHT22;4589;48.690;8.952;2023-12-14T12:48:01;7.90;99.90
9107;DHT22;4589;48.690;8.952;2023-12-14T12:50:32;7.80;99.90
9107;DHT22;4589;48.690;8.952;2023-12-14T12:52:58;8.00;99.90
9107;DHT22;4589;48.690;8.952;2023-12-14T12:55:23;8.10;99.90
9107;DHT22;4589;48.690;8.952;2023-12-14T12:57:49;8.20;99.90
9107;DHT22;4589;48.690;8.952;2023-12-14T13:00:15;8.00;99.90
9107;DHT22;4589;48.690;8.952;2023-12-14T13:02:42;7.90;99.90
9107;DHT22;4589;48.690;8.952;2023-12-14T13:05:08;9.60;99.90
9107;DHT22;4589;48.690;8.952;2023-12-14T13:07:35;8.00;99.90
9107;DHT22;4589;48.690;8.952;2023-12-14T13:10:00;7.80;99.90
9107;DHT22;4589;48.690;8.952;2023-12-14T13:12:26;7.80;99.90
9107;DHT22;4589;48.690;8.952;2023-12-14T13:14:52;7.90;99.90
9107;DHT22;4589;48.690;8.952;2023-12-14T13:17:17;7.90;99.90
9107;DHT22;4589;48.690;8.952;2023-12-14T13:19:44;7.80;99.90
9107;DHT22;4589;48.690;8.952;2023-12-14T13:22:09;7.70;99.90
9107;DHT22;4589;48.690;8.952;2023-12-14T13:24:37;7.70;99.90
9107;DHT22;4589;48.690;8.952;2023-12-14T13:27:02;7.70;99.90
9107;DHT22;4589;48.690;8.952;2023-12-14T13:29:29;7.60;99.90
9107;DHT22;4589;48.690;8.952;2023-12-14T13:31:56;7.50;99.90
9107;DHT22;4589;48.690;8.952;2023-12-14T13:36:48;6.80;99.90
9107;DHT22;4589;48.690;8.952;2023-12-14T13:39:13;6.60;99.90
9107;DHT22;4589;48.690;8.952;2023-12-14T13:41:39;6.50;99.90
9107;DHT22;4589;48.690;8.952;2023-12-14T13:44:05;6.50;99.90
9107;DHT22;4589;48.690;8.952;2023-12-14T13:46:30;6.60;99.90
9107;DHT22;4589;48.690;8.952;2023-12-14T13:51:22;6.60;99.90
9107;DHT22;4589;48.690;8.952;2023-12-14T13:53:48;6.60;99.90
9107;DHT22;4589;48.690;8.952;2023-12-14T13:56:13;6.60;99.90
9107;DHT22;4589;48.690;8.952;2023-12-14T13:58:39;6.50;99.90
9107;DHT22;4589;48.690;8.952;2023-12-14T14:01:05;6.50;99.90
9107;DHT22;4589;48.690;8.952;2023-12-14T14:03:34;6.40;99.90
9107;DHT22;4589;48.690;8.952;2023-12-14T14:06:01;6.40;99.90
9107;DHT22;4589;48.690;8.952;2023-12-14T14:08:27;6.40;99.90
9107;DHT22;4589;48.690;8.952;2023-12-14T14:13:19;6.40;99.90
9107;DHT22;4589;48.690;8.952;2023-12-14T14:15:47;6.30;99.90
9107;DHT22;4589;48.690;8.952;2023-12-14T14:18:12;6.20;99.90
9107;DHT22;4589;48.690;8.952;2023-12-14T14:20:38;6.20;99.90
9107;DHT22;4589;48.690;8.952;2023-12-14T14:23:04;6.20;99.90
9107;DHT22;4589;48.690;8.952;2023-12-14T14:25:31;6.30;99.90
9107;DHT22;4589;48.690;8.952;2023-12-14T14:27:57;6.20;99.90
9107;DHT22;4589;48.690;8.952;2023-12-14T14:30:24;6.10;99.90
9107;DHT22;4589;48.690;8.952;2023-12-14T14:32:49;6.10;99.90
9107;DHT22;4589;48.690;8.952;2023-12-14T14:35:15;6.10;99.90
9107;DHT22;4589;48.690;8.952;2023-12-14T14:37:41;6.10;99.90
9107;DHT22;4589;48.690;8.952;2023-12-14T14:40:11;6.00;99.90
9107;DHT22;4589;48.690;8.952;2023-12-14T14:42:36;6.00;99.90
9107;DHT22;4589;48.690;8.952;2023-12-14T14:45:02;5.90;99.90
9107;DHT22;4589;48.690;8.952;2023-12-14T14:47:28;5.80;99.90
9107;DHT22;4589;48.690;8.952;2023-12-14T14:49:54;5.80;99.90
9107;DHT22;4589;48.690;8.952;2023-12-14T14:52:22;5.70;99.90
9107;DHT22;4589;48.690;8.952;2023-12-14T14:59:40;5.60;99.90
9107;DHT22;4589;48.690;8.952;2023-12-14T15:02:06;5.60;99.90
9107;DHT22;4589;48.690;8.952;2023-12-14T15:04:32;5.60;99.90
9107;DHT22;4589;48.690;8.952;2023-12-14T15:09:24;5.60;99.90
9107;DHT22;4589;48.690;8.952;2023-12-14T15:16:43;5.50;99.90
9107;DHT22;4589;48.690;8.952;2023-12-14T15:19:09;5.50;99.90
9107;DHT22;4589;48.690;8.952;2023-12-14T15:21:37;5.50;99.90
9107;DHT22;4589;48.690;8.952;2023-12-14T15:24:02;5.50;99.90
9107;DHT22;4589;48.690;8.952;2023-12-14T15:26:28;5.50;99.90
9107;DHT22;4589;48.690;8.952;2023-12-14T15:28:57;5.50;99.90
9107;DHT22;4589;48.690;8.952;2023-12-14T15:31:23;5.50;99.90
9107;DHT22;4589;48.690;8.952;2023-12-14T15:33:48;5.50;99.90
9107;DHT22;4589;48.690;8.952;2023-12-14T15:38:40;5.40;99.90
9107;DHT22;4589;48.690;8.952;2023-12-14T15:43:37;5.40;99.90
9107;DHT22;4589;48.690;8.952;2023-12-14T15:46:02;5.40;99.90
9107;DHT22;4589;48.690;8.952;2023-12-14T15:48:28;5.30;99.90
9107;DHT22;4589;48.690;8.952;2023-12-14T15:50:54;5.40;99.90
9107;DHT22;4589;48.690;8.952;2023-12-14T15:53:19;5.30;99.90
9107;DHT22;4589;48.690;8.952;2023-12-14T15:55:45;5.30;99.90
9107;DHT22;4589;48.690;8.952;2023-12-14T15:58:10;5.30;99.90
9107;DHT22;4589;48.690;8.952;2023-12-14T16:00:37;5.30;99.90
9107;DHT22;4589;48.690;8.952;2023-12-14T16:03:04;5.30;99.90
9107;DHT22;4589;48.690;8.952;2023-12-14T16:07:55;5.20;99.90
9107;DHT22;4589;48.690;8.952;2023-12-14T16:10:22;5.20;99.90
9107;DHT22;4589;48.690;8.952;2023-12-14T16:12:47;5.20;99.90
9107;DHT22;4589;48.690;8.952;2023-12-14T16:15:13;5.20;99.90
9107;DHT22;4589;48.690;8.952;2023-12-14T16:17:38;5.20;99.90
9107;DHT22;4589;48.690;8.952;2023-12-14T16:20:04;5.20;99.90
9107;DHT22;4589;48.690;8.952;2023-12-14T16:22:30;5.20;99.90
9107;DHT22;4589;48.690;8.952;2023-12-14T16:27:22;5.20;99.90
9107;DHT22;4589;48.690;8.952;2023-12-14T16:29:48;5.20;99.90
9107;DHT22;4589;48.690;8.952;2023-12-14T16:32:15;5.20;99.90
9107;DHT22;4589;48.690;8.952;2023-12-14T16:34:40;5.20;99.90
9107;DHT22;4589;48.690;8.952;2023-12-14T16:37:06;5.20;99.90
9107;DHT22;4589;48.690;8.952;2023-12-14T16:39:31;5.20;99.90
9107;DHT22;4589;48.690;8.952;2023-12-14T16:41:57;5.10;99.90
9107;DHT22;4589;48.690;8.952;2023-12-14T16:44:23;5.10;99.90
9107;DHT22;4589;48.690;8.952;2023-12-14T16:46:49;5.10;99.90
9107;DHT22;4589;48.690;8.952;2023-12-14T16:49:15;5.20;99.90
9107;DHT22;4589;48.690;8.952;2023-12-14T16:51:40;5.10;99.90
9107;DHT22;4589;48.690;8.952;2023-12-14T16:54:06;5.10;99.90
9107;DHT22;4589;48.690;8.952;2023-12-14T16:56:32;5.20;99.90
9107;DHT22;4589;48.690;8.952;2023-12-14T16:58:58;5.10;99.90
9107;DHT22;4589;48.690;8.952;2023-12-14T17:01:24;5.10;99.90
9107;DHT22;4589;48.690;8.952;2023-12-14T17:03:50;5.10;99.90
9107;DHT22;4589;48.690;8.952;2023-12-14T17:06:20;5.10;99.90
9107;DHT22;4589;48.690;8.952;2023-12-14T17:08:46;5.10;99.90
9107;DHT22;4589;48.690;8.952;2023-12-14T17:11:12;5.10;99.90
9107;DHT22;4589;48.690;8.952;2023-12-14T17:13:38;5.00;99.90
9107;DHT22;4589;48.690;8.952;2023-12-14T17:16:14;5.10;99.90
9107;DHT22;4589;48.690;8.952;2023-12-14T17:18:40;5.00;99.90
9107;DHT22;4589;48.690;8.952;2023-12-14T17:21:15;5.00;99.90
9107;DHT22;4589;48.690;8.952;2023-12-14T17:23:41;5.00;99.90
9107;DHT22;4589;48.690;8.952;2023-12-14T17:26:07;5.00;99.90
9107;DHT22;4589;48.690;8.952;2023-12-14T17:30:58;5.00;99.90
9107;DHT22;4589;48.690;8.952;2023-12-14T17:33:24;5.00;99.90
9107;DHT22;4589;48.690;8.952;2023-12-14T17:35:49;5.10;99.90
9107;DHT22;4589;48.690;8.952;2023-12-14T17:38:15;5.10;99.90
9107;DHT22;4589;48.690;8.952;2023-12-14T17:43:06;5.00;99.90
9107;DHT22;4589;48.690;8.952;2023-12-14T17:45:32;5.00;99.90
9107;DHT22;4589;48.690;8.952;2023-12-14T17:47:57;4.90;99.90
9107;DHT22;4589;48.690;8.952;2023-12-14T17:50:23;4.90;99.90
9107;DHT22;4589;48.690;8.952;2023-12-14T17:52:48;4.80;99.90
9107;DHT22;4589;48.690;8.952;2023-12-14T17:55:14;4.80;99.90
9107;DHT22;4589;48.690;8.952;2023-12-14T17:57:40;4.70;99.90
9107;DHT22;4589;48.690;8.952;2023-12-14T18:00:05;4.80;99.90
9107;DHT22;4589;48.690;8.952;2023-12-14T18:02:32;4.70;99.90
9107;DHT22;4589;48.690;8.952;2023-12-14T18:04:58;4.70;99.90
9107;DHT22;4589;48.690;8.952;2023-12-14T18:07:24;4.80;99.90
9107;DHT22;4589;48.690;8.952;2023-12-14T18:12:15;4.80;99.90
9107;DHT22;4589;48.690;8.952;2023-12-14T18:14:41;4.80;99.90
9107;DHT22;4589;48.690;8.952;2023-12-14T18:17:06;4.70;99.90
9107;DHT22;4589;48.690;8.952;2023-12-14T18:24:24;4.50;99.90
9107;DHT22;4589;48.690;8.952;2023-12-14T18:26:50;4.50;99.90
9107;DHT22;4589;48.690;8.952;2023-12-14T18:29:16;4.40;99.90
9107;DHT22;4589;48.690;8.952;2023-12-14T18:31:41;4.40;99.90
9107;DHT22;4589;48.690;8.952;2023-12-14T18:34:07;4.30;99.90
9107;DHT22;4589;48.690;8.952;2023-12-14T18:36:33;4.30;99.90
9107;DHT22;4589;48.690;8.952;2023-12-14T18:43:51;4.30;99.90
9107;DHT22;4589;48.690;8.952;2023-12-14T18:58:27;4.20;99.90
9107;DHT22;4589;48.690;8.952;2023-12-14T19:08:11;4.20;99.90
9107;DHT22;4589;48.690;8.952;2023-12-14T19:10:37;4.20;99.90
9107;DHT22;4589;48.690;8.952;2023-12-14T19:13:03;4.20;99.90
9107;DHT22;4589;48.690;8.952;2023-12-14T19:15:30;4.30;99.90
9107;DHT22;4589;48.690;8.952;2023-12-14T19:17:56;4.30;99.90
9107;DHT22;4589;48.690;8.952;2023-12-14T19:20:22;4.30;99.90
9107;DHT22;4589;48.690;8.952;2023-12-14T19:22:47;4.30;99.90
9107;DHT22;4589;48.690;8.952;2023-12-14T19:27:39;4.30;99.90
9107;DHT22;4589;48.690;8.952;2023-12-14T19:30:08;4.30;99.90
9107;DHT22;4589;48.690;8.952;2023-12-14T19:32:37;4.30;99.90
9107;DHT22;4589;48.690;8.952;2023-12-14T19:35:03;4.30;99.90
9107;DHT22;4589;48.690;8.952;2023-12-14T19:37:29;4.30;99.90
9107;DHT22;4589;48.690;8.952;2023-12-14T19:39:57;4.30;99.90
9107;DHT22;4589;48.690;8.952;2023-12-14T19:42:22;4.30;99.90
9107;DHT22;4589;48.690;8.952;2023-12-14T19:44:48;4.30;99.90
9107;DHT22;4589;48.690;8.952;2023-12-14T19:47:13;4.30;99.90
9107;DHT22;4589;48.690;8.952;2023-12-14T19:52:05;4.40;99.90
9107;DHT22;4589;48.690;8.952;2023-12-14T19:56:57;4.30;99.90
9107;DHT22;4589;48.690;8.952;2023-12-14T19:59:22;4.30;99.90
9107;DHT22;4589;48.690;8.952;2023-12-14T20:01:48;4.40;99.90
9107;DHT22;4589;48.690;8.952;2023-12-14T20:06:40;4.30;99.90
9107;DHT22;4589;48.690;8.952;2023-12-14T20:11:32;4.30;99.90
9107;DHT22;4589;48.690;8.952;2023-12-14T20:13:58;4.30;99.90
9107;DHT22;4589;48.690;8.952;2023-12-14T20:18:51;4.40;99.90
9107;DHT22;4589;48.690;8.952;2023-12-14T20:21:16;4.40;99.90
9107;DHT22;4589;48.690;8.952;2023-12-14T20:23:42;4.20;99.90
9107;DHT22;4589;48.690;8.952;2023-12-14T20:28:34;4.10;99.90
9107;DHT22;4589;48.690;8.952;2023-12-14T20:31:00;4.00;99.90
9107;DHT22;4589;48.690;8.952;2023-12-14T20:33:26;3.90;99.90